createdAt,value
2023-01-27T00:00:30.351Z,30.58
2023-01-27T00:03:33.384Z,28.83
2023-01-27T00:06:35.681Z,31.08
2023-01-27T00:09:38.348Z,29.10
2023-01-27T00:12:59.288Z,30.62
2023-01-27T00:19:03.937Z,28.70
2023-01-27T00:22:25.059Z,28.80
2023-01-27T00:25:27.317Z,26.83
2023-01-27T00:31:53.048Z,29.85
2023-01-27T00:34:55.751Z,25.77
2023-01-27T00:37:58.949Z,28.25
2023-01-27T00:41:20.768Z,30.15
2023-01-27T00:44:23.915Z,25.48
2023-01-27T00:47:27.931Z,28.58
2023-01-27T00:50:30.162Z,27.40
2023-01-27T00:53:32.916Z,26.05
2023-01-27T00:56:35.590Z,24.58
2023-01-27T00:59:40.216Z,26.65
2023-01-27T01:02:42.442Z,26.73
2023-01-27T01:05:45.038Z,27.55
2023-01-27T01:08:48.642Z,24.08
2023-01-27T01:11:51.517Z,27.23
2023-01-27T01:14:54.900Z,28.42
2023-01-27T01:17:57.557Z,25.40
2023-01-27T01:20:59.766Z,26.45
2023-01-27T01:24:02.395Z,31.85
2023-01-27T01:27:04.787Z,25.95
2023-01-27T01:30:09.461Z,25.83
2023-01-27T01:33:11.842Z,29.10
2023-01-27T01:36:16.729Z,27.13
2023-01-27T01:39:18.966Z,23.77
2023-01-27T01:42:21.534Z,31.23
2023-01-27T01:45:33.683Z,26.33
2023-01-27T01:48:48.082Z,27.40
2023-01-27T01:51:55.069Z,25.98
2023-01-27T01:54:58.737Z,25.77
2023-01-27T01:58:02.567Z,26.15
2023-01-27T02:01:06.301Z,29.23
2023-01-27T02:04:14.104Z,27.33
2023-01-27T02:07:22.343Z,24.33
2023-01-27T02:10:27.053Z,24.55
2023-01-27T02:13:29.645Z,22.52
2023-01-27T02:16:33.016Z,22.02
2023-01-27T02:19:51.939Z,22.90
2023-01-27T02:23:23.137Z,20.52
2023-01-27T02:26:30.970Z,19.35
2023-01-27T02:29:33.310Z,23.92
2023-01-27T02:32:35.921Z,18.83
2023-01-27T02:35:44.672Z,21.60
2023-01-27T02:38:50.417Z,22.33
2023-01-27T02:41:55.924Z,20.05
2023-01-27T02:44:58.822Z,18.00
2023-01-27T02:48:01.114Z,17.73
2023-01-27T02:51:03.834Z,16.17
2023-01-27T02:54:06.687Z,17.35
2023-01-27T02:57:09.235Z,17.70
2023-01-27T03:00:16.092Z,17.27
2023-01-27T03:03:18.636Z,16.35
2023-01-27T03:06:21.789Z,15.18
2023-01-27T03:09:24.986Z,16.33
2023-01-27T03:12:27.190Z,15.95
2023-01-27T03:15:48.656Z,19.12
2023-01-27T03:21:54.758Z,17.95
2023-01-27T03:24:57.289Z,18.50
2023-01-27T03:28:01.633Z,15.10
2023-01-27T03:31:09.748Z,16.40
2023-01-27T03:34:13.997Z,17.27
2023-01-27T03:37:35.343Z,16.70
2023-01-27T03:40:56.800Z,17.15
2023-01-27T03:44:18.082Z,17.55
2023-01-27T03:47:21.494Z,16.95
2023-01-27T03:50:37.460Z,16.75
2023-01-27T03:53:41.213Z,16.10
2023-01-27T03:56:43.723Z,16.77
2023-01-27T03:59:46.236Z,16.95
2023-01-27T04:03:07.147Z,18.42
2023-01-27T04:06:30.990Z,17.35
2023-01-27T04:09:36.207Z,14.95
2023-01-27T04:12:38.775Z,14.18
2023-01-27T04:15:41.094Z,18.58
2023-01-27T04:18:43.761Z,18.10
2023-01-27T04:21:46.637Z,17.23
2023-01-27T04:24:50.203Z,16.90
2023-01-27T04:27:52.418Z,17.17
2023-01-27T04:30:55.503Z,15.48
2023-01-27T04:33:57.942Z,17.40
2023-01-27T04:37:00.518Z,18.67
2023-01-27T04:40:04.774Z,16.95
2023-01-27T04:43:07.343Z,16.70
2023-01-27T04:46:10.950Z,17.42
2023-01-27T04:49:13.493Z,14.70
2023-01-27T04:52:15.709Z,14.50
2023-01-27T04:55:20.596Z,17.60
2023-01-27T04:58:24.871Z,16.65
2023-01-27T05:01:28.003Z,20.12
2023-01-27T05:04:30.495Z,19.80
2023-01-27T05:07:33.298Z,16.62
2023-01-27T05:10:36.163Z,19.65
2023-01-27T05:13:40.795Z,18.27
2023-01-27T05:16:43.406Z,18.17
2023-01-27T05:19:46.080Z,15.63
2023-01-27T05:22:48.509Z,16.50
2023-01-27T05:25:51.366Z,18.05
2023-01-27T05:28:56.411Z,17.17
2023-01-27T05:31:59.181Z,18.25
2023-01-27T05:35:01.354Z,17.20
2023-01-27T05:38:06.715Z,16.75
2023-01-27T05:41:10.453Z,16.10
2023-01-27T05:44:13.192Z,16.00
2023-01-27T05:47:15.441Z,16.55
2023-01-27T05:50:19.383Z,17.35
2023-01-27T05:53:22.945Z,17.83
2023-01-27T05:56:28.986Z,16.33
2023-01-27T05:59:31.210Z,17.42
2023-01-27T06:02:35.935Z,16.35
2023-01-27T06:05:38.831Z,15.68
2023-01-27T06:08:41.093Z,14.87
2023-01-27T06:11:44.388Z,18.73
2023-01-27T06:14:46.642Z,15.50
2023-01-27T06:17:51.390Z,15.57
2023-01-27T06:21:00.812Z,17.02
2023-01-27T06:24:04.373Z,16.37
2023-01-27T06:27:06.638Z,14.30
2023-01-27T06:30:09.989Z,14.63
2023-01-27T06:33:14.816Z,14.80
2023-01-27T06:36:21.821Z,13.98
2023-01-27T06:39:24.155Z,13.23
2023-01-27T06:42:27.104Z,20.33
2023-01-27T06:45:29.299Z,15.13
2023-01-27T06:48:32.206Z,17.40
2023-01-27T06:51:34.408Z,13.98
2023-01-27T06:54:36.878Z,15.65
2023-01-27T06:57:39.359Z,14.15
2023-01-27T07:00:42.631Z,13.70
2023-01-27T07:03:45.331Z,12.55
2023-01-27T07:06:47.918Z,12.90
2023-01-27T07:09:52.588Z,14.55
2023-01-27T07:13:07.724Z,13.82
2023-01-27T07:16:10.004Z,24.65
2023-01-27T07:19:13.091Z,11.38
2023-01-27T07:22:15.282Z,13.57
2023-01-27T07:25:17.950Z,15.50
2023-01-27T07:28:20.216Z,10.55
2023-01-27T07:31:23.154Z,13.30
2023-01-27T07:34:25.431Z,11.70
2023-01-27T07:37:27.841Z,10.65
2023-01-27T07:40:30.097Z,11.68
2023-01-27T07:43:33.441Z,14.63
2023-01-27T07:46:35.745Z,10.10
2023-01-27T07:49:38.251Z,11.57
2023-01-27T07:52:40.411Z,11.50
2023-01-27T07:55:43.146Z,12.45
2023-01-27T07:58:45.287Z,11.77
2023-01-27T08:01:48.391Z,13.50
2023-01-27T08:04:53.505Z,13.30
2023-01-27T08:07:58.642Z,12.68
2023-01-27T08:11:02.828Z,14.70
2023-01-27T08:14:05.025Z,10.73
2023-01-27T08:17:07.588Z,13.32
2023-01-27T08:20:11.358Z,11.07
2023-01-27T08:23:14.077Z,13.48
2023-01-27T08:26:16.290Z,11.12
2023-01-27T08:29:18.866Z,12.00
2023-01-27T08:32:21.022Z,12.73
2023-01-27T08:35:23.593Z,11.07
2023-01-27T08:38:27.884Z,11.15
2023-01-27T08:41:30.358Z,12.45
2023-01-27T08:44:32.487Z,10.27
2023-01-27T08:47:34.953Z,11.90
2023-01-27T08:50:37.185Z,10.13
2023-01-27T08:53:40.352Z,11.20
2023-01-27T08:56:42.620Z,11.02
2023-01-27T08:59:46.154Z,13.52
2023-01-27T09:02:50.880Z,13.18
2023-01-27T09:05:53.372Z,12.35
2023-01-27T09:09:15.788Z,10.75
2023-01-27T09:12:18.290Z,15.65
2023-01-27T09:15:20.632Z,13.07
2023-01-27T09:18:23.038Z,11.45
2023-01-27T09:21:26.286Z,10.40
2023-01-27T09:24:28.752Z,12.77
2023-01-27T09:27:39.110Z,8.93
2023-01-27T09:30:46.628Z,12.80
2023-01-27T09:33:48.902Z,11.70
2023-01-27T09:37:00.307Z,10.63
2023-01-27T09:43:53.734Z,11.00
2023-01-27T09:47:33.651Z,11.40
2023-01-27T09:50:36.050Z,12.32
2023-01-27T09:54:08.297Z,11.70
2023-01-27T09:58:00.282Z,10.55
2023-01-27T10:01:27.621Z,12.15
2023-01-27T10:04:54.797Z,11.35
2023-01-27T10:08:00.233Z,17.42
2023-01-27T10:11:17.131Z,11.40
2023-01-27T10:14:31.238Z,11.12
2023-01-27T10:17:39.708Z,21.17
2023-01-27T10:21:01.262Z,10.57
2023-01-27T10:24:15.756Z,10.63
2023-01-27T10:27:23.148Z,13.25
2023-01-27T10:30:35.924Z,10.65
2023-01-27T10:33:57.966Z,13.52
2023-01-27T10:37:12.409Z,13.23
2023-01-27T10:40:35.764Z,14.90
2023-01-27T10:43:38.178Z,13.00
2023-01-27T10:47:05.637Z,11.35
2023-01-27T10:50:23.247Z,9.65
2023-01-27T10:53:51.350Z,11.12
2023-01-27T10:57:00.835Z,13.30
2023-01-27T11:00:54.826Z,10.88
2023-01-27T11:03:51.657Z,12.25
2023-01-27T11:06:55.525Z,10.85
2023-01-27T11:10:03.782Z,12.95
2023-01-27T11:13:12.332Z,11.57
2023-01-27T11:16:17.605Z,12.15
2023-01-27T11:19:30.864Z,11.02
2023-01-27T11:22:56.979Z,11.00
2023-01-27T11:26:38.274Z,11.68
2023-01-27T11:29:49.294Z,11.80
2023-01-27T11:33:00.916Z,11.90
2023-01-27T11:36:03.596Z,13.80
2023-01-27T11:39:06.752Z,11.18
2023-01-27T11:42:10.923Z,12.10
2023-01-27T11:45:19.109Z,9.73
2023-01-27T11:48:23.415Z,10.77
2023-01-27T11:51:32.388Z,12.95
2023-01-27T11:54:44.993Z,13.93
2023-01-27T11:57:57.744Z,9.82
2023-01-27T12:01:05.855Z,10.68
2023-01-27T12:04:19.265Z,10.38
2023-01-27T12:07:42.351Z,10.27
2023-01-27T12:10:44.950Z,10.40
2023-01-27T12:13:51.283Z,11.25
2023-01-27T12:17:02.913Z,15.10
2023-01-27T12:20:44.069Z,12.93
2023-01-27T12:27:06.873Z,11.95
2023-01-27T12:30:24.077Z,13.55
2023-01-27T12:33:30.745Z,12.73
2023-01-27T12:36:52.478Z,17.30
2023-01-27T12:40:31.245Z,13.43
2023-01-27T12:44:07.694Z,13.62
2023-01-27T12:47:29.326Z,15.60
2023-01-27T12:50:56.252Z,15.57
2023-01-27T12:54:24.073Z,15.68
2023-01-27T12:57:30.803Z,13.52
2023-01-27T13:00:44.099Z,15.05
2023-01-27T13:04:19.483Z,16.55
2023-01-27T13:07:30.106Z,19.85
2023-01-27T13:10:39.389Z,16.30
2023-01-27T13:13:50.678Z,18.77
2023-01-27T13:16:56.946Z,18.80
2023-01-27T13:20:04.791Z,15.60
2023-01-27T13:23:18.802Z,17.62
2023-01-27T13:26:33.293Z,15.52
2023-01-27T13:33:55.596Z,19.27
2023-01-27T13:37:02.761Z,18.52
2023-01-27T13:40:27.861Z,14.43
2023-01-27T13:43:34.998Z,18.83
2023-01-27T13:46:39.543Z,18.67
2023-01-27T13:49:50.876Z,17.12
2023-01-27T13:52:56.972Z,18.85
2023-01-27T13:56:28.599Z,19.08
2023-01-27T14:03:58.515Z,19.27
2023-01-27T14:07:36.755Z,18.50
2023-01-27T14:10:59.196Z,17.70
2023-01-27T14:14:21.507Z,19.95
2023-01-27T14:17:35.751Z,18.35
2023-01-27T14:21:14.193Z,19.75
2023-01-27T14:24:38.273Z,18.87
2023-01-27T14:27:46.593Z,21.05
2023-01-27T14:30:59.320Z,18.55
2023-01-27T14:34:29.612Z,21.30
2023-01-27T14:37:44.995Z,17.52
2023-01-27T14:41:06.278Z,19.58
2023-01-27T14:45:01.098Z,19.75
2023-01-27T14:48:40.570Z,19.65
2023-01-27T14:51:50.971Z,21.27
2023-01-27T14:55:03.908Z,21.45
2023-01-27T14:58:18.450Z,21.85
2023-01-27T15:01:49.643Z,18.80
2023-01-27T15:05:14.193Z,22.10
2023-01-27T15:08:41.187Z,21.83
2023-01-27T15:12:03.227Z,19.77
2023-01-27T15:15:27.723Z,18.25
2023-01-27T15:18:57.353Z,20.35
2023-01-27T15:22:42.933Z,21.17
2023-01-27T15:31:18.635Z,19.67
2023-01-27T15:53:01.323Z,22.37
2023-01-27T16:15:13.032Z,24.45
2023-01-27T16:18:43.544Z,21.12
2023-01-27T16:21:47.799Z,22.87
2023-01-27T16:25:28.033Z,19.27
2023-01-27T16:28:32.870Z,23.20
2023-01-27T16:31:38.292Z,22.60
2023-01-27T16:34:46.292Z,20.10
2023-01-27T16:38:32.527Z,20.95
2023-01-27T16:41:39.056Z,21.73
2023-01-27T16:44:46.673Z,18.48
2023-01-27T16:47:58.851Z,18.77
2023-01-27T16:51:28.631Z,17.95
2023-01-27T16:54:38.284Z,17.75
2023-01-27T16:57:45.788Z,17.60
2023-01-27T17:00:52.202Z,17.58
2023-01-27T17:04:04.784Z,19.90
2023-01-27T17:07:15.748Z,19.27
2023-01-27T17:10:33.911Z,17.08
2023-01-27T17:13:50.313Z,20.62
2023-01-27T17:16:52.926Z,18.80
2023-01-27T17:20:01.896Z,17.25
2023-01-27T17:23:05.496Z,19.37
2023-01-27T17:26:16.141Z,18.98
2023-01-27T17:29:22.143Z,17.27
2023-01-27T17:32:27.869Z,18.75
2023-01-27T17:35:33.475Z,16.67
2023-01-27T17:38:51.052Z,16.95
2023-01-27T17:41:56.058Z,17.33
2023-01-27T17:45:24.101Z,17.98
2023-01-27T17:48:26.468Z,22.87
2023-01-27T17:51:39.346Z,17.65
2023-01-27T17:54:42.145Z,17.10
2023-01-27T17:57:46.517Z,17.15
2023-01-27T18:00:49.116Z,16.62
2023-01-27T18:03:56.944Z,16.20
2023-01-27T18:06:59.489Z,18.00
2023-01-27T18:10:24.220Z,17.17
2023-01-27T18:13:29.807Z,18.73
2023-01-27T18:16:34.182Z,16.48
2023-01-27T18:19:36.661Z,15.52
2023-01-27T18:22:43.987Z,15.50
2023-01-27T18:25:51.374Z,17.20
2023-01-27T18:28:59.007Z,17.33
2023-01-27T18:32:23.849Z,16.52
2023-01-27T18:35:32.774Z,17.58
2023-01-27T18:38:46.167Z,15.27
2023-01-27T18:41:50.080Z,18.33
2023-01-27T18:44:53.289Z,17.00
2023-01-27T18:47:56.618Z,18.92
2023-01-27T18:50:59.415Z,17.55
2023-01-27T18:54:02.117Z,17.52
2023-01-27T18:57:04.479Z,16.48
2023-01-27T19:00:10.495Z,18.02
2023-01-27T19:03:15.896Z,17.05
2023-01-27T19:06:20.777Z,16.60
2023-01-27T19:09:23.373Z,17.77
2023-01-27T19:12:26.049Z,17.80
2023-01-27T19:15:32.079Z,15.35
2023-01-27T19:18:38.226Z,17.83
2023-01-27T19:21:40.589Z,19.33
2023-01-27T19:24:45.680Z,17.10
2023-01-27T19:27:52.976Z,17.80
2023-01-27T19:30:57.209Z,18.15
2023-01-27T19:33:59.518Z,16.20
2023-01-27T19:37:02.460Z,17.87
2023-01-27T19:40:15.468Z,20.55
2023-01-27T19:43:18.733Z,18.77
2023-01-27T19:46:22.413Z,18.73
2023-01-27T19:49:25.444Z,19.85
2023-01-27T19:52:27.758Z,20.35
2023-01-27T19:55:30.884Z,18.30
2023-01-27T19:58:33.231Z,20.42
2023-01-27T20:01:36.021Z,18.85
2023-01-27T20:04:38.976Z,19.98
2023-01-27T20:07:44.479Z,19.33
2023-01-27T20:10:47.268Z,18.60
2023-01-27T20:13:49.575Z,20.40
2023-01-27T20:16:55.285Z,20.20
2023-01-27T20:19:57.626Z,18.62
2023-01-27T20:23:00.422Z,22.40
2023-01-27T20:26:03.524Z,19.70
2023-01-27T20:29:06.153Z,20.90
2023-01-27T20:32:09.616Z,22.70
2023-01-27T20:35:14.872Z,20.75
2023-01-27T20:38:17.264Z,21.37
2023-01-27T20:41:22.243Z,26.77
2023-01-27T20:44:24.668Z,23.48
2023-01-27T20:47:27.413Z,24.05
2023-01-27T20:50:29.738Z,25.30
2023-01-27T20:53:37.001Z,24.85
2023-01-27T20:56:39.264Z,23.67
2023-01-27T20:59:42.097Z,26.40
2023-01-27T21:02:44.471Z,27.48
2023-01-27T21:05:47.012Z,26.73
2023-01-27T21:08:49.683Z,25.85
2023-01-27T21:11:52.527Z,24.85
2023-01-27T21:14:55.322Z,24.25
2023-01-27T21:17:58.233Z,26.52
2023-01-27T21:21:02.737Z,26.33
2023-01-27T21:24:06.662Z,25.88
2023-01-27T21:27:09.252Z,24.23
2023-01-27T21:30:13.259Z,26.37
2023-01-27T21:33:17.078Z,24.25
2023-01-27T21:36:19.762Z,23.00
2023-01-27T21:39:22.555Z,25.12
2023-01-27T21:42:43.783Z,28.60
2023-01-27T21:45:46.276Z,26.80
2023-01-27T21:48:49.470Z,24.10
2023-01-27T21:51:51.803Z,26.85
2023-01-27T21:54:54.509Z,25.55
2023-01-27T21:57:57.426Z,27.67
2023-01-27T22:01:08.255Z,26.25
2023-01-27T22:04:11.231Z,25.77
2023-01-27T22:07:17.284Z,27.62
2023-01-27T22:10:23.016Z,26.20
2023-01-27T22:13:25.254Z,25.33
2023-01-27T22:16:27.860Z,25.33
2023-01-27T22:19:30.375Z,27.52
2023-01-27T22:22:33.066Z,26.20
2023-01-27T22:25:35.431Z,26.98
2023-01-27T22:28:38.052Z,24.45
2023-01-27T22:31:42.788Z,26.40
2023-01-27T22:34:47.760Z,27.62
2023-01-27T22:37:50.128Z,25.95
2023-01-27T22:40:57.867Z,24.85
2023-01-27T22:44:00.244Z,25.88
2023-01-27T22:47:02.967Z,26.30
2023-01-27T22:50:05.731Z,27.55
2023-01-27T22:53:08.555Z,25.17
2023-01-27T22:56:10.996Z,24.33
2023-01-27T22:59:13.794Z,25.42
2023-01-27T23:02:16.063Z,30.27
2023-01-27T23:05:18.605Z,26.70
2023-01-27T23:08:20.878Z,24.80
2023-01-27T23:11:23.504Z,25.92
2023-01-27T23:14:25.818Z,24.98
2023-01-27T23:17:28.451Z,26.95
2023-01-27T23:20:30.820Z,29.83
2023-01-27T23:23:35.614Z,24.77
2023-01-27T23:26:37.962Z,27.85
2023-01-27T23:29:40.658Z,29.02
2023-01-27T23:32:43.078Z,26.35
2023-01-27T23:35:46.696Z,25.92
2023-01-27T23:38:49.063Z,27.27
2023-01-27T23:41:51.718Z,28.48
2023-01-27T23:44:54.172Z,23.67
2023-01-27T23:47:57.719Z,24.58
2023-01-27T23:51:06.718Z,26.45
2023-01-27T23:54:09.418Z,25.20
2023-01-27T23:57:11.796Z,25.77
